Time;durP1;ratioP1;P1;durP2;ratioP2;P2;SDS_P1;SDS_P2;PMS_P1;PMS_P2;Temp;Humidity;BMP_temperature;BMP_pressure;BME280_temperature;BME280_humidity;BME280_pressure;Samples;Min_cycle;Max_cycle;Signal;HPM_P1;HPM_P2
2022/12/30 00:01:11;;;;;;;2.13;1.17;;;;;;;8.43;93.38;97910.63;5003778;28;20042;-83
2022/12/30 00:03:37;;;;;;;3.67;1.20;;;;;;;8.37;93.54;97908.78;5002259;28;20038;-82
2022/12/30 00:06:14;;;;;;;1.73;1.10;;;;;;;8.37;93.45;97909.59;5002875;28;20046;-83
2022/12/30 00:08:47;;;;;;;2.47;1.15;;;;;;;8.32;93.37;97917.97;5003781;28;20034;-82
2022/12/30 00:11:18;;;;;;;6.53;1.63;;;;;;;8.30;93.37;97925.19;5002570;28;20037;-83
2022/12/30 00:34:32;;;;;;;2.33;1.02;;;;;;;8.02;91.87;97921.72;5001298;28;20098;-83
2022/12/30 00:36:58;;;;;;;1.17;0.70;;;;;;;8.05;91.86;97918.75;5014897;28;20631;-83
2022/12/30 00:39:24;;;;;;;2.58;0.80;;;;;;;7.99;91.61;97907.25;4999868;28;20041;-83
2022/12/30 00:44:34;;;;;;;1.13;0.82;;;;;;;8.02;91.42;97919.13;4999113;28;20041;-83
2022/12/30 00:47:00;;;;;;;2.05;0.75;;;;;;;8.07;91.20;97927.19;4995974;28;20042;-83
2022/12/30 00:57:39;;;;;;;1.45;1.10;;;;;;;7.97;90.83;97929.31;5003935;28;20045;-83
2022/12/30 01:00:07;;;;;;;1.73;1.00;;;;;;;8.03;90.84;97933.78;5003337;28;20042;-83
2022/12/30 01:02:33;;;;;;;2.78;0.90;;;;;;;7.95;90.38;97934.72;5002952;28;20081;-82
2022/12/30 01:04:58;;;;;;;1.80;0.80;;;;;;;8.00;90.50;97940.22;5001126;28;20030;-83
2022/12/30 01:07:26;;;;;;;5.03;0.98;;;;;;;7.99;90.46;97950.84;5002223;28;20038;-82
2022/12/30 01:09:51;;;;;;;1.13;0.77;;;;;;;7.94;90.35;97958.44;5001557;28;20045;-83
2022/12/30 01:12:17;;;;;;;2.40;0.93;;;;;;;7.90;90.51;97954.56;5000650;28;20520;-83
2022/12/30 01:14:49;;;;;;;1.52;0.80;;;;;;;7.82;90.64;97958.09;5001318;28;20066;-83
2022/12/30 01:17:21;;;;;;;3.13;1.02;;;;;;;7.86;90.71;97958.56;5000984;28;20481;-83
2022/12/30 01:19:46;;;;;;;2.05;0.90;;;;;;;7.90;90.81;97954.56;5000447;28;20044;-83
2022/12/30 01:22:13;;;;;;;1.90;0.70;;;;;;;7.89;90.74;97958.16;5000398;28;20034;-83
2022/12/30 01:24:38;;;;;;;1.85;1.10;;;;;;;7.95;90.60;97965.25;5002752;28;20029;-83
2022/12/30 01:27:04;;;;;;;2.92;0.80;;;;;;;7.85;90.49;97976.00;5003023;28;20049;-83
2022/12/30 01:29:36;;;;;;;2.17;0.77;;;;;;;7.87;90.49;97986.28;4999483;28;20057;-82
2022/12/30 01:32:07;;;;;;;1.90;0.73;;;;;;;7.84;90.40;97984.03;4998777;28;20112;-82
2022/12/30 01:34:34;;;;;;;2.28;0.88;;;;;;;7.94;90.47;97992.38;4998701;28;20081;-83
2022/12/30 01:37:00;;;;;;;1.27;0.80;;;;;;;7.90;90.23;97996.34;4998158;28;20046;-83
2022/12/30 01:39:25;;;;;;;1.58;0.88;;;;;;;7.83;90.48;98003.28;4997522;28;20038;-83
2022/12/30 01:41:53;;;;;;;1.13;0.60;;;;;;;7.75;90.43;97988.56;4998942;28;20030;-83
2022/12/30 01:45:16;;;;;;;1.15;0.70;;;;;;;7.63;90.80;97998.66;4997317;28;20113;-82
2022/12/30 01:48:02;;;;;;;4.05;0.80;;;;;;;7.56;91.21;98013.44;5012034;28;20046;-83
2022/12/30 01:50:35;;;;;;;2.53;0.82;;;;;;;7.58;91.59;98011.44;4998505;28;20496;-83
2022/12/30 01:53:08;;;;;;;1.73;0.90;;;;;;;7.53;91.95;98000.75;5000450;28;20541;-83
2022/12/30 01:55:50;;;;;;;1.73;0.80;;;;;;;7.53;91.92;98000.75;5002859;28;20041;-83
2022/12/30 01:58:47;;;;;;;1.13;0.70;;;;;;;7.56;91.84;98005.63;5001665;28;20447;-83
2022/12/30 02:01:14;;;;;;;1.35;0.80;;;;;;;7.45;91.83;98013.91;5012786;28;20049;-83
2022/12/30 02:03:48;;;;;;;1.25;0.77;;;;;;;7.48;92.07;98018.75;5001707;28;20094;-83
2022/12/30 02:06:23;;;;;;;1.23;0.80;;;;;;;7.49;92.08;98020.34;5000585;28;20041;-83
2022/12/30 02:08:49;;;;;;;1.73;0.80;;;;;;;7.42;92.04;98029.91;5000648;28;20030;-83
2022/12/30 02:11:14;;;;;;;1.05;0.80;;;;;;;7.45;92.37;98038.19;5000254;28;20054;-83
2022/12/30 02:13:40;;;;;;;4.30;0.85;;;;;;;7.42;92.07;98038.53;5000096;28;20045;-83
2022/12/30 02:16:23;;;;;;;1.17;0.90;;;;;;;7.48;91.96;98050.06;5000009;28;20040;-83
2022/12/30 02:19:16;;;;;;;3.20;0.90;;;;;;;7.50;91.90;98045.50;4999793;28;20375;-83
2022/12/30 02:22:25;;;;;;;1.00;0.95;;;;;;;7.46;91.54;98049.44;4997768;28;20041;-83
2022/12/30 02:25:52;;;;;;;2.00;0.80;;;;;;;7.39;92.12;98056.38;4997988;28;20065;-83
2022/12/30 02:28:58;;;;;;;2.25;0.82;;;;;;;7.36;92.36;98056.72;4997840;28;20038;-83
2022/12/30 02:31:34;;;;;;;1.80;0.90;;;;;;;7.33;92.32;98046.66;4997532;28;20041;-83
2022/12/30 02:34:17;;;;;;;1.40;0.95;;;;;;;7.24;92.66;98051.94;4997242;28;20056;-83
2022/12/30 02:37:11;;;;;;;2.25;0.90;;;;;;;7.23;93.03;98052.94;4995872;28;20514;-83
2022/12/30 02:39:48;;;;;;;2.15;0.90;;;;;;;7.22;92.91;98060.94;4997225;28;20057;-83
2022/12/30 02:45:41;;;;;;;1.92;1.10;;;;;;;7.17;93.51;98063.28;4995219;28;20045;-83
2022/12/30 02:48:21;;;;;;;;;;;;;;;7.17;93.45;98073.72;5005331;28;20026;-83
2022/12/30 02:53:39;;;;;;;1.73;0.90;;;;;;;7.09;93.65;98061.56;5002379;28;20037;-83
2022/12/30 02:56:05;;;;;;;;;;;;;;;7.06;93.91;98067.13;5001499;28;20061;-83
2022/12/30 02:58:43;;;;;;;1.75;1.15;;;;;;;7.00;93.98;98073.06;4999685;28;19914;-83
2022/12/30 03:05:00;;;;;;;5.35;1.58;;;;;;;6.91;94.61;98068.91;4997932;28;20049;-83
2022/12/30 03:07:54;;;;;;;2.70;1.00;;;;;;;6.85;94.96;98062.59;5007835;28;20054;-83
2022/12/30 03:14:01;;;;;;;2.28;1.10;;;;;;;6.86;94.83;98089.47;4999667;28;20545;-83
2022/12/30 03:16:36;;;;;;;1.27;1.17;;;;;;;6.84;94.58;98083.66;4999475;28;20033;-83
2022/12/30 03:19:17;;;;;;;2.08;1.27;;;;;;;6.77;94.71;98082.69;4997914;28;20038;-83
2022/12/30 03:21:45;;;;;;;3.05;1.05;;;;;;;6.72;95.13;98080.66;4999063;28;20448;-83
2022/12/30 03:27:09;;;;;;;3.65;1.10;;;;;;;6.70;94.72;98088.63;4996875;28;20053;-83
2022/12/30 03:29:48;;;;;;;2.13;1.20;;;;;;;6.62;95.28;98091.28;4996702;28;20042;-83
2022/12/30 03:32:17;;;;;;;3.65;1.00;;;;;;;6.58;95.43;98091.81;5004008;28;20087;-83
2022/12/30 03:34:45;;;;;;;1.67;1.17;;;;;;;6.57;95.34;98101.44;4996004;28;20128;-83
2022/12/30 03:37:29;;;;;;;2.13;1.23;;;;;;;6.55;95.42;98105.19;4995320;28;20038;-83
2022/12/30 03:40:04;;;;;;;4.03;1.38;;;;;;;6.55;95.86;98119.03;4995977;28;20038;-83
2022/12/30 03:42:32;;;;;;;2.35;1.13;;;;;;;6.54;95.95;98120.03;4995801;28;20662;-83
2022/12/30 03:44:58;;;;;;;1.95;1.27;;;;;;;6.52;95.79;98111.56;4998165;28;20038;-83
2022/12/30 03:47:24;;;;;;;5.22;1.50;;;;;;;6.51;95.60;98107.34;5005875;28;20046;-83
2022/12/30 03:49:49;;;;;;;1.50;1.20;;;;;;;6.60;95.59;98119.34;4999923;28;20033;-83
2022/12/30 03:52:20;;;;;;;2.80;1.48;;;;;;;6.63;95.46;98118.97;5000651;28;20104;-83
2022/12/30 03:54:47;;;;;;;4.80;1.60;;;;;;;6.65;95.32;98117.00;5000755;28;20034;-83
2022/12/30 03:57:13;;;;;;;2.53;1.48;;;;;;;6.67;95.42;98119.44;5000311;28;20041;-83
2022/12/30 03:59:40;;;;;;;3.38;1.50;;;;;;;6.71;95.04;98105.88;4999936;28;20042;-83
2022/12/30 04:02:06;;;;;;;2.85;1.80;;;;;;;6.81;95.10;98105.66;4999281;28;20509;-83
2022/12/30 04:04:31;;;;;;;2.60;1.40;;;;;;;6.88;94.89;98116.19;4998126;28;20046;-83
2022/12/30 04:06:57;;;;;;;2.17;1.40;;;;;;;6.92;94.45;98109.63;4999695;28;20026;-83
2022/12/30 04:09:23;;;;;;;3.05;1.40;;;;;;;7.06;94.20;98119.28;4997529;28;20049;-83
2022/12/30 04:11:48;;;;;;;3.10;1.50;;;;;;;7.10;93.73;98125.78;4998255;28;20041;-83
2022/12/30 04:14:14;;;;;;;3.05;1.30;;;;;;;7.16;93.42;98127.69;4998348;28;20034;-83
2022/12/30 04:16:39;;;;;;;2.15;1.27;;;;;;;7.15;92.74;98127.88;4999260;28;20121;-83
2022/12/30 04:19:04;;;;;;;2.80;1.30;;;;;;;7.09;92.47;98129.38;4998343;28;20042;-83
2022/12/30 04:21:30;;;;;;;4.25;1.52;;;;;;;7.02;92.38;98132.84;4997751;28;20117;-83
2022/12/30 04:23:56;;;;;;;1.98;1.35;;;;;;;7.07;92.60;98126.13;5000221;28;20031;-83
2022/12/30 04:26:21;;;;;;;6.70;1.73;;;;;;;7.09;92.47;98126.78;5003748;28;20050;-83
2022/12/30 04:28:47;;;;;;;3.88;1.50;;;;;;;7.12;92.40;98121.19;4999790;28;20030;-83
2022/12/30 04:31:12;;;;;;;1.60;1.30;;;;;;;7.04;92.00;98121.28;4999667;28;20041;-83
2022/12/30 04:33:37;;;;;;;2.58;1.48;;;;;;;7.08;91.86;98125.16;5000469;28;20022;-83
2022/12/30 04:36:04;;;;;;;2.88;1.63;;;;;;;7.10;91.60;98130.19;5003158;28;20042;-83
2022/12/30 04:38:29;;;;;;;4.57;1.92;;;;;;;7.11;91.67;98137.81;4998145;28;20042;-83
2022/12/30 04:40:55;;;;;;;6.38;1.83;;;;;;;7.10;91.60;98145.84;4997509;28;20088;-83
2022/12/30 04:43:20;;;;;;;2.00;1.60;;;;;;;7.09;91.37;98145.03;5002673;28;20065;-83
2022/12/30 04:45:46;;;;;;;3.75;1.73;;;;;;;7.05;91.45;98141.13;5001683;28;20049;-83
2022/12/30 04:48:12;;;;;;;4.43;1.90;;;;;;;6.97;91.09;98141.22;5003019;28;20038;-83
2022/12/30 04:50:45;;;;;;;3.70;2.13;;;;;;;6.91;91.43;98129.69;5003252;28;20034;-83
2022/12/30 04:53:12;;;;;;;2.42;1.80;;;;;;;6.89;91.58;98128.22;5003269;28;20026;-84
2022/12/30 04:55:38;;;;;;;5.47;2.22;;;;;;;6.83;91.62;98134.94;5003212;28;20049;-83
2022/12/30 04:58:05;;;;;;;4.65;2.30;;;;;;;6.81;91.82;98128.31;5001398;28;20061;-83
2022/12/30 05:00:31;;;;;;;3.65;1.92;;;;;;;6.76;91.84;98143.66;5001813;28;20038;-83
2022/12/30 05:02:58;;;;;;;3.95;2.13;;;;;;;6.75;92.19;98144.63;5001442;28;20046;-83
2022/12/30 05:05:24;;;;;;;5.15;2.17;;;;;;;6.76;92.02;98139.25;5001399;28;20037;-83
2022/12/30 05:07:49;;;;;;;7.68;2.45;;;;;;;6.81;92.17;98143.94;5001468;28;20045;-83
2022/12/30 05:10:15;;;;;;;5.38;2.15;;;;;;;6.82;91.96;98145.56;5000913;28;20065;-83
2022/12/30 05:12:41;;;;;;;5.38;2.38;;;;;;;6.86;92.04;98137.22;5000098;28;20073;-82
2022/12/30 05:15:07;;;;;;;9.20;2.50;;;;;;;6.87;91.94;98135.41;5000997;28;20038;-83
2022/12/30 05:17:33;;;;;;;5.22;1.90;;;;;;;6.90;91.96;98129.88;4999534;28;20048;-83
2022/12/30 05:19:59;;;;;;;7.43;2.22;;;;;;;6.94;91.81;98133.72;5000054;28;20030;-82
2022/12/30 05:22:24;;;;;;;4.13;1.98;;;;;;;6.97;91.61;98136.00;5000974;28;20410;-83
2022/12/30 05:27:34;;;;;;;4.05;2.33;;;;;;;6.99;91.46;98144.44;4997704;28;20092;-82
2022/12/30 05:30:00;;;;;;;5.07;2.60;;;;;;;6.94;91.51;98131.13;4998900;28;20030;-83
2022/12/30 05:32:25;;;;;;;6.05;2.95;;;;;;;6.97;91.39;98143.81;4998300;28;20045;-83
2022/12/30 05:34:51;;;;;;;4.93;2.08;;;;;;;6.94;91.55;98152.78;4998469;28;20105;-83
2022/12/30 05:37:16;;;;;;;8.20;2.72;;;;;;;6.97;91.57;98142.03;4998640;28;20426;-82
2022/12/30 05:39:42;;;;;;;7.35;2.28;;;;;;;6.97;91.65;98146.44;4996957;28;20541;-83
2022/12/30 05:42:07;;;;;;;7.57;1.92;;;;;;;6.96;91.59;98158.66;5003267;28;20088;-83
2022/12/30 05:44:33;;;;;;;4.47;1.80;;;;;;;7.01;91.47;98163.31;5003054;28;20145;-83
2022/12/30 05:46:58;;;;;;;1.98;1.55;;;;;;;7.02;91.42;98169.34;5000703;28;20385;-83
2022/12/30 05:49:24;;;;;;;4.15;2.10;;;;;;;7.03;91.25;98163.97;5002728;28;20156;-83
2022/12/30 05:51:49;;;;;;;4.03;2.00;;;;;;;7.03;91.32;98177.03;5003060;28;20038;-83
2022/12/30 05:54:15;;;;;;;4.63;2.38;;;;;;;7.10;91.17;98190.19;5002268;28;20057;-83
2022/12/30 05:56:41;;;;;;;2.08;1.80;;;;;;;7.10;91.33;98196.19;5001124;28;20109;-83
2022/12/30 05:59:09;;;;;;;3.08;2.00;;;;;;;7.17;90.97;98201.53;5001657;28;20120;-83
2022/12/30 06:01:36;;;;;;;6.38;1.95;;;;;;;7.21;91.03;98210.63;4999044;28;20429;-83
2022/12/30 06:04:02;;;;;;;5.97;2.25;;;;;;;7.28;90.60;98197.69;4998731;28;20040;-83
2022/12/30 06:06:27;;;;;;;7.43;2.30;;;;;;;7.30;90.28;98200.94;5001664;28;20117;-83
2022/12/30 06:08:53;;;;;;;4.20;1.83;;;;;;;7.33;90.32;98200.59;5000482;28;20067;-83
2022/12/30 06:11:18;;;;;;;5.03;1.73;;;;;;;7.20;90.02;98185.53;4999119;28;20085;-83
2022/12/30 06:13:44;;;;;;;2.80;1.92;;;;;;;7.33;90.16;98182.31;4999969;28;20034;-83
2022/12/30 06:16:09;;;;;;;2.95;1.45;;;;;;;7.31;90.30;98189.50;4997979;28;20061;-83
2022/12/30 06:18:38;;;;;;;3.20;1.70;;;;;;;7.27;90.09;98183.03;4998358;28;20053;-83
2022/12/30 06:21:04;;;;;;;5.68;1.65;;;;;;;7.16;90.04;98198.09;4997119;28;20038;-83
2022/12/30 06:23:30;;;;;;;3.08;1.70;;;;;;;7.11;90.20;98199.63;4999494;28;20531;-83
2022/12/30 06:25:58;;;;;;;5.07;1.65;;;;;;;7.11;90.56;98195.22;4997415;28;20646;-83
2022/12/30 06:28:27;;;;;;;5.10;1.70;;;;;;;7.05;90.40;98195.09;4997404;28;20635;-83
2022/12/30 06:30:53;;;;;;;3.65;1.52;;;;;;;6.98;90.98;98197.59;4997641;28;20034;-83
2022/12/30 06:33:19;;;;;;;5.35;1.80;;;;;;;6.98;91.16;98189.78;4994612;28;20100;-82
2022/12/30 06:35:46;;;;;;;4.90;1.63;;;;;;;7.01;91.34;98204.25;4997108;28;20034;-83
2022/12/30 06:38:12;;;;;;;2.00;1.52;;;;;;;7.03;91.14;98197.09;4996745;28;20065;-83
2022/12/30 06:40:38;;;;;;;3.10;1.60;;;;;;;7.00;91.25;98190.41;5000187;28;20068;-83
2022/12/30 06:43:04;;;;;;;4.57;1.58;;;;;;;7.04;91.03;98199.50;5002362;28;20462;-83
2022/12/30 06:45:29;;;;;;;3.90;1.85;;;;;;;6.93;90.84;98187.69;5000505;28;20061;-83
2022/12/30 06:47:55;;;;;;;3.17;1.50;;;;;;;6.89;90.92;98186.38;4998878;28;20627;-83
2022/12/30 06:50:20;;;;;;;2.38;1.52;;;;;;;6.81;91.09;98189.06;5000003;28;20046;-83
2022/12/30 06:52:46;;;;;;;5.82;1.80;;;;;;;6.75;91.06;98183.72;5001959;28;20064;-82
2022/12/30 06:55:11;;;;;;;4.55;1.80;;;;;;;6.60;91.23;98188.88;5000380;28;20046;-83
2022/12/30 06:57:37;;;;;;;2.47;1.63;;;;;;;6.60;91.52;98213.16;4997778;28;20068;-83
2022/12/30 07:00:06;;;;;;;5.22;1.70;;;;;;;6.56;91.65;98211.06;4998875;28;20041;-83
2022/12/30 07:02:32;;;;;;;2.30;1.80;;;;;;;6.46;91.61;98203.44;5000100;28;20057;-83
2022/12/30 07:04:59;;;;;;;3.90;2.00;;;;;;;6.35;91.82;98206.41;4999173;28;20446;-82
2022/12/30 07:07:25;;;;;;;3.83;1.85;;;;;;;6.28;92.28;98205.47;4998239;28;20101;-82
2022/12/30 07:09:51;;;;;;;3.28;1.80;;;;;;;6.16;92.38;98200.63;4997090;28;20493;-83
2022/12/30 07:12:17;;;;;;;2.17;1.40;;;;;;;6.12;92.56;98201.97;4999394;28;20192;-82
2022/12/30 07:14:43;;;;;;;1.60;1.25;;;;;;;6.11;93.12;98197.72;4976656;28;20132;-82
2022/12/30 07:17:09;;;;;;;3.28;1.70;;;;;;;6.02;93.44;98208.34;4997893;28;20031;-82
2022/12/30 07:19:35;;;;;;;2.00;1.60;;;;;;;6.00;92.93;98211.13;4998121;28;20500;-83
2022/12/30 07:22:00;;;;;;;2.22;1.50;;;;;;;5.99;92.84;98214.69;4996538;28;20526;-82
2022/12/30 07:24:25;;;;;;;4.03;1.80;;;;;;;5.97;93.16;98206.25;4996227;28;20070;-83
2022/12/30 07:26:51;;;;;;;3.13;1.45;;;;;;;5.94;93.25;98206.59;4995881;28;20038;-82
2022/12/30 07:29:17;;;;;;;3.88;1.88;;;;;;;5.95;93.83;98213.41;4994441;28;20057;-83
2022/12/30 07:31:42;;;;;;;2.15;1.50;;;;;;;5.99;94.29;98209.47;4995536;28;20263;-83
2022/12/30 07:34:08;;;;;;;4.28;1.40;;;;;;;5.98;94.01;98207.06;4995322;28;20474;-83
2022/12/30 07:36:33;;;;;;;7.38;2.00;;;;;;;6.02;94.02;98214.38;4998476;28;20084;-83
2022/12/30 07:39:00;;;;;;;3.50;1.83;;;;;;;6.04;93.70;98216.78;5000210;28;20080;-83
2022/12/30 07:41:26;;;;;;;5.43;1.80;;;;;;;6.07;93.74;98217.28;4999989;28;20435;-83
2022/12/30 07:43:52;;;;;;;4.75;1.60;;;;;;;6.09;93.64;98219.72;4996644;28;20027;-83
2022/12/30 07:46:18;;;;;;;2.92;1.90;;;;;;;6.13;93.57;98221.81;4996585;28;20046;-83
2022/12/30 07:48:44;;;;;;;3.40;1.65;;;;;;;6.21;93.42;98223.56;4997827;28;20120;-83
2022/12/30 07:51:14;;;;;;;5.43;1.88;;;;;;;6.21;92.94;98231.38;5000972;28;20029;-83
2022/12/30 07:53:40;;;;;;;3.70;1.70;;;;;;;6.28;92.81;98226.31;4998720;28;20064;-83
2022/12/30 07:56:10;;;;;;;3.50;1.65;;;;;;;6.24;92.34;98219.81;5016017;28;20037;-83
2022/12/30 07:58:36;;;;;;;3.85;1.88;;;;;;;6.32;92.46;98219.78;5003043;28;20652;-83
2022/12/30 08:01:08;;;;;;;4.68;2.67;;;;;;;6.38;92.24;98213.91;5002694;28;20405;-83
2022/12/30 08:03:34;;;;;;;3.08;1.85;;;;;;;6.42;91.87;98220.41;5005028;28;20041;-83
2022/12/30 08:06:05;;;;;;;4.05;2.72;;;;;;;6.39;91.76;98213.72;5002041;28;20038;-83
2022/12/30 08:08:30;;;;;;;3.80;2.20;;;;;;;6.39;91.73;98212.91;5002875;28;20085;-83
2022/12/30 08:10:58;;;;;;;2.13;1.83;;;;;;;6.37;91.65;98215.69;5002071;28;20038;-83
2022/12/30 08:13:23;;;;;;;3.65;1.90;;;;;;;6.39;91.74;98210.31;5000841;28;20460;-83
2022/12/30 08:15:49;;;;;;;2.67;1.80;;;;;;;6.41;92.03;98216.16;5000925;28;20065;-83
2022/12/30 08:18:15;;;;;;;5.80;2.20;;;;;;;6.46;91.68;98220.88;5000223;28;20034;-83
2022/12/30 08:20:41;;;;;;;4.03;1.83;;;;;;;6.57;91.28;98218.69;5003983;28;20474;-83
2022/12/30 08:23:06;;;;;;;2.42;1.90;;;;;;;6.62;90.95;98216.38;5000380;28;20045;-83
2022/12/30 08:25:33;;;;;;;3.33;2.17;;;;;;;6.62;90.76;98219.00;5001208;28;20389;-83
2022/12/30 08:27:59;;;;;;;3.38;2.03;;;;;;;6.62;90.64;98211.19;4999424;28;20106;-83
2022/12/30 08:30:24;;;;;;;3.40;2.10;;;;;;;6.73;90.21;98214.38;5002457;28;20094;-83
2022/12/30 08:32:50;;;;;;;8.02;2.65;;;;;;;6.76;90.25;98212.22;4997449;28;20105;-83
2022/12/30 08:35:15;;;;;;;6.57;2.92;;;;;;;6.81;90.13;98212.53;4999655;28;20455;-83
2022/12/30 08:37:41;;;;;;;3.70;2.00;;;;;;;6.89;90.18;98216.88;5005236;28;20069;-83
2022/12/30 08:40:08;;;;;;;2.47;1.80;;;;;;;6.81;89.73;98211.72;5003077;28;20548;-83
2022/12/30 08:42:37;;;;;;;3.33;2.45;;;;;;;6.86;89.91;98223.25;5003388;28;20042;-83
2022/12/30 08:45:05;;;;;;;3.83;2.55;;;;;;;6.97;89.88;98224.66;5002103;28;20125;-83
2022/12/30 08:47:34;;;;;;;4.15;2.33;;;;;;;7.03;89.94;98223.97;5004832;28;20032;-83
2022/12/30 08:49:59;;;;;;;4.55;2.55;;;;;;;7.07;89.31;98219.19;5003258;28;20129;-83
2022/12/30 08:52:27;;;;;;;4.53;2.80;;;;;;;7.13;89.14;98213.28;5000383;28;20113;-83
2022/12/30 08:54:53;;;;;;;3.10;2.75;;;;;;;7.18;88.99;98211.78;5002222;28;20061;-83
2022/12/30 08:57:19;;;;;;;7.68;3.00;;;;;;;7.19;89.22;98202.16;5001022;28;20473;-83
2022/12/30 08:59:44;;;;;;;4.22;3.08;;;;;;;7.18;88.95;98201.34;5001683;28;20036;-84
2022/12/30 09:02:14;;;;;;;3.95;2.80;;;;;;;7.37;89.61;98200.03;5001656;28;20125;-83
2022/12/30 09:04:40;;;;;;;4.38;3.28;;;;;;;7.45;89.01;98202.59;5001461;28;20398;-83
2022/12/30 09:07:06;;;;;;;5.10;3.70;;;;;;;7.42;89.15;98194.28;5001752;28;20030;-83
2022/12/30 09:09:32;;;;;;;5.47;3.22;;;;;;;7.41;88.48;98188.28;5000980;28;20049;-83
2022/12/30 09:11:57;;;;;;;5.60;3.40;;;;;;;7.50;88.74;98189.84;5000245;28;20041;-83
2022/12/30 09:14:23;;;;;;;5.63;3.50;;;;;;;7.50;88.24;98199.47;5000440;28;20044;-83
2022/12/30 09:16:50;;;;;;;5.15;3.50;;;;;;;7.54;88.54;98195.50;4999112;28;20038;-83
2022/12/30 09:19:17;;;;;;;6.45;4.93;;;;;;;7.65;88.33;98202.91;5000151;28;20045;-83
2022/12/30 09:21:43;;;;;;;9.73;5.03;;;;;;;7.69;87.58;98204.16;4999142;28;20069;-83
2022/12/30 09:24:09;;;;;;;7.78;4.15;;;;;;;7.71;87.08;98217.84;4997976;28;20106;-83
2022/12/30 09:26:36;;;;;;;5.10;3.03;;;;;;;7.77;86.76;98206.69;4997995;28;20088;-83
2022/12/30 09:29:02;;;;;;;5.03;3.08;;;;;;;7.86;86.45;98215.25;4998747;28;20044;-83
2022/12/30 09:31:28;;;;;;;4.38;3.03;;;;;;;8.01;86.78;98203.00;4999422;28;20049;-83
2022/12/30 09:33:55;;;;;;;3.75;2.65;;;;;;;8.08;86.16;98203.09;4999012;28;20593;-83
2022/12/30 09:36:21;;;;;;;6.07;3.25;;;;;;;8.04;85.47;98207.06;5002631;28;20065;-83
2022/12/30 09:38:48;;;;;;;5.63;2.97;;;;;;;8.08;85.73;98197.06;5001901;28;20072;-83
2022/12/30 09:44:35;;;;;;;4.35;3.22;;;;;;;8.18;84.62;98203.63;5002581;28;20072;-83
2022/12/30 09:47:26;;;;;;;5.03;2.95;;;;;;;8.24;84.53;98202.09;4999645;28;20034;-83
2022/12/30 09:50:07;;;;;;;3.28;2.70;;;;;;;8.31;84.28;98188.13;5001621;28;20034;-83
2022/12/30 09:52:55;;;;;;;5.32;3.50;;;;;;;8.35;84.56;98177.31;5001137;28;20056;-83
2022/12/30 09:55:27;;;;;;;5.32;3.17;;;;;;;8.35;83.41;98188.56;5002420;28;20041;-82
2022/12/30 09:57:59;;;;;;;9.98;4.45;;;;;;;8.37;83.52;98183.19;5000528;28;20042;-83
2022/12/30 10:00:32;;;;;;;2.97;2.45;;;;;;;8.45;82.48;98178.66;5001866;28;20038;-83
2022/12/30 10:03:29;;;;;;;5.13;3.60;;;;;;;8.48;82.50;98167.84;4999967;28;20101;-83
2022/12/30 10:06:35;;;;;;;9.55;4.93;;;;;;;8.46;82.44;98159.38;4999867;28;20042;-83
2022/12/30 10:09:19;;;;;;;3.50;2.50;;;;;;;8.40;81.72;98147.06;4998493;28;20041;-83
2022/12/30 10:11:48;;;;;;;4.60;3.00;;;;;;;8.59;82.67;98135.19;4999670;28;20069;-83
2022/12/30 10:14:29;;;;;;;3.67;3.05;;;;;;;8.60;82.12;98128.94;4999887;28;20372;-83
2022/12/30 10:17:41;;;;;;;5.60;3.67;;;;;;;8.56;81.13;98125.09;4998739;28;20088;-83
2022/12/30 10:20:51;;;;;;;3.25;2.60;;;;;;;8.61;81.28;98117.50;4998356;28;20121;-83
2022/12/30 10:24:15;;;;;;;3.72;2.80;;;;;;;8.56;81.56;98107.59;5015274;28;20030;-83
2022/12/30 10:26:50;;;;;;;2.95;2.45;;;;;;;8.66;81.56;98107.28;5010536;28;20072;-83
2022/12/30 10:29:29;;;;;;;4.75;2.97;;;;;;;8.76;82.04;98096.53;4999012;28;20042;-83
2022/12/30 10:31:55;;;;;;;3.72;2.65;;;;;;;8.81;80.63;98096.75;4998130;28;20042;-83
2022/12/30 10:34:28;;;;;;;12.07;5.40;;;;;;;8.82;81.05;98093.16;5001575;28;20106;-83
2022/12/30 10:37:28;;;;;;;5.47;2.88;;;;;;;8.96;80.95;98081.00;5002926;28;20531;-83
2022/12/30 10:39:54;;;;;;;7.97;3.42;;;;;;;8.96;80.79;98081.81;5001739;28;20030;-83
2022/12/30 10:42:31;;;;;;;4.05;3.13;;;;;;;8.81;80.55;98070.59;5002149;28;20065;-83
2022/12/30 10:45:38;;;;;;;4.32;3.10;;;;;;;8.87;80.79;98066.41;4999178;28;20033;-83
2022/12/30 10:48:27;;;;;;;4.10;3.22;;;;;;;9.12;80.62;98065.03;5038576;28;20042;-83
2022/12/30 10:50:54;;;;;;;4.13;2.60;;;;;;;9.25;81.60;98053.84;5037890;28;20040;-83
2022/12/30 10:53:24;;;;;;;3.88;2.80;;;;;;;9.36;80.48;98055.91;5014111;28;20046;-83
2022/12/30 10:56:00;;;;;;;7.28;4.30;;;;;;;9.20;79.78;98049.16;4998260;28;20378;-83
2022/12/30 10:58:35;;;;;;;3.55;3.08;;;;;;;9.02;79.94;98048.84;4999630;28;20495;-83
2022/12/30 11:01:01;;;;;;;3.10;2.80;;;;;;;9.02;79.85;98046.22;4996964;28;20038;-83
2022/12/30 11:03:30;;;;;;;4.13;3.13;;;;;;;9.03;80.21;98040.78;4999163;28;20378;-83
2022/12/30 11:06:20;;;;;;;3.45;3.10;;;;;;;9.11;80.87;98038.03;4999864;28;20025;-83
2022/12/30 11:08:45;;;;;;;3.22;2.88;;;;;;;9.07;80.18;98038.63;5013696;28;20351;-83
2022/12/30 11:11:11;;;;;;;5.13;3.13;;;;;;;8.93;80.16;98019.38;4998692;28;20092;-83
2022/12/30 11:16:31;;;;;;;3.33;3.03;;;;;;;9.05;80.81;98040.59;4997276;28;20089;-83
2022/12/30 11:19:01;;;;;;;5.90;3.10;;;;;;;9.03;80.61;98034.75;4999061;28;20129;-83
2022/12/30 11:21:35;;;;;;;4.55;2.90;;;;;;;8.96;80.35;98037.34;4998282;28;20046;-83
2022/12/30 11:24:03;;;;;;;2.92;2.58;;;;;;;8.84;79.99;98036.25;4996777;28;20093;-83
2022/12/30 11:26:33;;;;;;;3.10;2.80;;;;;;;8.68;80.57;98013.78;4997609;28;20516;-83
2022/12/30 11:29:08;;;;;;;6.43;3.00;;;;;;;8.73;80.86;98021.06;4998855;28;20030;-84
2022/12/30 11:31:47;;;;;;;3.35;2.50;;;;;;;8.63;80.35;98008.31;5002201;28;20061;-83
2022/12/30 11:34:36;;;;;;;3.30;2.25;;;;;;;8.69;80.78;98011.97;5005769;28;20026;-83
2022/12/30 11:37:40;;;;;;;2.88;2.58;;;;;;;8.53;80.01;98013.06;5005218;28;20132;-84
2022/12/30 11:40:28;;;;;;;2.08;1.88;;;;;;;8.52;80.54;98011.47;5009025;28;20084;-83
2022/12/30 11:43:18;;;;;;;2.63;2.35;;;;;;;8.52;80.60;98017.50;5008073;28;20057;-83
2022/12/30 11:46:14;;;;;;;4.55;2.65;;;;;;;8.51;81.49;98012.44;4997756;28;20054;-83
2022/12/30 11:48:48;;;;;;;2.22;2.03;;;;;;;8.57;81.23;98001.22;5002796;28;20085;-83
2022/12/30 11:51:19;;;;;;;3.38;2.33;;;;;;;8.70;80.94;98009.19;4999838;28;20044;-83
2022/12/30 11:53:48;;;;;;;3.75;1.77;;;;;;;8.51;80.22;98015.84;5002229;28;20378;-83
2022/12/30 11:56:21;;;;;;;4.13;2.35;;;;;;;8.27;81.73;97983.03;5000980;28;20424;-83
2022/12/30 11:58:48;;;;;;;2.30;1.85;;;;;;;8.39;82.00;97993.81;5000966;28;20034;-83
2022/12/30 12:01:14;;;;;;;2.25;2.05;;;;;;;8.32;81.82;97996.34;5001968;28;20053;-83
2022/12/30 12:03:56;;;;;;;2.22;1.85;;;;;;;8.48;82.38;97999.75;5000796;28;20030;-83
2022/12/30 12:06:22;;;;;;;2.03;1.83;;;;;;;8.40;81.66;97997.28;5000992;28;20366;-83
2022/12/30 12:09:01;;;;;;;2.25;2.00;;;;;;;8.44;81.48;97995.88;5002007;28;20042;-83
2022/12/30 12:11:38;;;;;;;2.78;2.00;;;;;;;8.28;80.53;98000.34;4999487;28;20037;-83
2022/12/30 12:14:35;;;;;;;2.22;1.77;;;;;;;8.24;80.56;97993.06;5001831;28;20029;-83
2022/12/30 12:17:29;;;;;;;3.10;1.98;;;;;;;8.16;80.32;98001.84;5005483;28;20036;-83
2022/12/30 12:20:28;;;;;;;2.85;2.03;;;;;;;8.23;80.13;97996.69;4999752;28;20084;-83
2022/12/30 12:23:02;;;;;;;2.67;1.95;;;;;;;8.20;80.31;98003.06;5002670;28;20099;-83
2022/12/30 12:25:47;;;;;;;1.70;1.60;;;;;;;8.29;80.13;98001.97;4997985;28;20053;-83
2022/12/30 12:28:13;;;;;;;1.90;1.70;;;;;;;8.28;80.29;98002.16;4998861;28;20027;-83
2022/12/30 12:31:21;;;;;;;2.03;1.90;;;;;;;8.27;80.64;98003.94;5004066;28;20041;-83
2022/12/30 12:34:09;;;;;;;2.80;1.80;;;;;;;8.43;81.03;97996.88;5002974;28;20410;-83
2022/12/30 12:37:03;;;;;;;2.03;1.48;;;;;;;8.79;80.42;98007.22;5003521;28;20417;-82
2022/12/30 12:40:16;;;;;;;3.25;1.70;;;;;;;8.98;79.71;98005.75;5004516;28;20046;-83
2022/12/30 12:43:06;;;;;;;2.08;1.70;;;;;;;9.03;78.99;98005.97;5011287;28;20371;-83
2022/12/30 12:45:47;;;;;;;2.75;2.03;;;;;;;8.94;78.06;97988.84;5005721;28;20050;-83
2022/12/30 12:49:07;;;;;;;3.67;2.10;;;;;;;8.88;78.28;97979.16;5002749;28;20121;-83
2022/12/30 12:51:49;;;;;;;1.83;1.70;;;;;;;8.79;78.77;97984.50;5001429;28;20049;-83
2022/12/30 12:54:52;;;;;;;2.45;2.03;;;;;;;8.73;79.07;97972.19;5000957;28;20041;-83
2022/12/30 12:57:38;;;;;;;2.30;1.83;;;;;;;9.00;79.14;97961.91;5001693;28;20520;-83
2022/12/30 13:00:53;;;;;;;2.28;1.90;;;;;;;9.14;78.65;97934.81;5002734;28;20106;-83
2022/12/30 13:03:36;;;;;;;2.63;2.10;;;;;;;9.29;77.87;97938.09;4997687;28;20057;-83